Aérodrome :
LOGIN :

S'inscrire | Disclaimer

   EN    FR    IT 

 










Légende :    VFR   VFR Marginal   IFR   IFR Intensif   IFR Très Intensif
Visi : 
Plafond : 
>= 8 km
>= 3000ft
5 à 8 km
1000 à 3000 ft
1500m à 5 km
500 à 1000 ft
800 à 1500m
200 à 500 ft
< 800m
< 200 ft
Symboles :   Orages  Brouillard  Fortes neiges  Fortes précipitations  Vent > 20 kt
SIGMETs :   Divers  Orages  Givrage  Turbulence  Onde Orograph.  Cendres Volcan.







- Altitude de l'aérodrome : 1090 ft
- Code IATA : CFE
- Voir les cartes d'approche


LFLC - Clermont-Ferrand Auvergne

DERNIER METAR :
  • 210600Z AUTO VRB02KT 8000 BKN033 BKN042 BKN080 13/11 Q1015 TEMPO BKN014

METARs EXPIRÉS :
  • 210530Z AUTO 07002KT 7000 FEW025 SCT040 BKN064 12/11 Q1015 TEMPO BKN014
  • 210500Z AUTO 17001KT 7000 SCT030 BKN037 BKN045 12/10 Q1015 TEMPO BKN014
  • 210430Z AUTO 19002KT 6000 -RA FEW025 BKN034 BKN041 12/10 Q1015 TEMPO BKN014
  • 210400Z AUTO 05003KT 9000 BKN027/// OVC033/// ///TCU 12/10 Q1015 TEMPO BKN014
  • 210330Z AUTO 14002KT 9999 OVC029 12/10 Q1015 TEMPO BKN014

TAF TAF LFLC
Valide du 21 à 03h jusqu'au 22 à 03h UTC


210200Z 2103/2203 33006KT 9999 BKN035
PROB30
TEMPO 2103/2108 BKN014
TEMPO 2109/2120 4000 SHRA BKN040TCU
PROB30
TEMPO 2113/2117 -TSRA SCT035CB
TEMPO 2200/2203 4000 BR
ATIS : +33 4 73 62 74 38
Pas de NOTAMs connus pour ce terrain.
1 SIGMET publié pour la FIR Marseille (LFMM) :
 
Onde orographique forte
LFMM SIGMET 1 VALID 210400/210800 LFPW
LFMM MARSEILLE FIR/UIR SEV MTW FCST E OF E00900 SFC/FL100 STNR NC=



MET'MAP, la Météo Aéronautique d'un coup d'oeil ! - Copyright ORBIFLY Décembre 2007 - Disclaimer

ORBIFLY MET'MAP TEAM :

Programmation & Développement : Alexandra Zaïnal
Conception & Développement : Baudouin d'Aumeries
Co-Programmation & Développement : Marc-Olivier Méhu
Soutien technique & logistique : Manuel Goepfert

Contact : metmap@orbifly.com




SOURCES & CREDITS :

   NOAA